createdAt,value
2023-03-30T00:00:13.857Z,2.33
2023-03-30T00:02:44.212Z,2.17
2023-03-30T00:05:12.028Z,2.08
2023-03-30T00:07:41.898Z,2.10
2023-03-30T00:10:09.875Z,2.20
2023-03-30T00:12:37.278Z,1.88
2023-03-30T00:15:05.660Z,2.05
2023-03-30T00:17:33.461Z,2.45
2023-03-30T00:20:06.134Z,2.42
2023-03-30T00:22:33.934Z,2.00
2023-03-30T00:25:01.413Z,2.40
2023-03-30T00:27:28.723Z,2.10
2023-03-30T00:29:56.007Z,2.50
2023-03-30T00:32:23.382Z,2.28
2023-03-30T00:34:50.883Z,2.28
2023-03-30T00:37:19.709Z,2.33
2023-03-30T00:39:47.055Z,2.35
2023-03-30T00:42:17.767Z,2.25
2023-03-30T00:45:07.330Z,2.20
2023-03-30T00:47:35.889Z,2.35
2023-03-30T00:50:03.443Z,2.00
2023-03-30T00:52:33.101Z,2.83
2023-03-30T00:55:00.639Z,2.10
2023-03-30T00:57:28.484Z,2.08
2023-03-30T00:59:56.869Z,2.30
2023-03-30T01:02:24.416Z,2.03
2023-03-30T01:04:54.771Z,2.45
2023-03-30T01:07:24.695Z,2.03
2023-03-30T01:09:53.558Z,2.13
2023-03-30T01:12:21.116Z,2.10
2023-03-30T01:14:49.053Z,2.40
2023-03-30T01:17:18.262Z,1.85
2023-03-30T01:19:58.516Z,2.25
2023-03-30T01:22:36.737Z,1.60
2023-03-30T01:25:20.415Z,2.65
2023-03-30T01:28:01.881Z,2.65
2023-03-30T01:30:41.366Z,1.92
2023-03-30T01:33:23.613Z,2.22
2023-03-30T01:35:59.966Z,2.22
2023-03-30T01:38:34.906Z,2.33
2023-03-30T01:43:36.019Z,1.90
2023-03-30T01:46:07.063Z,1.58
2023-03-30T01:48:38.259Z,2.25
2023-03-30T01:51:07.129Z,2.08
2023-03-30T01:53:39.888Z,1.90
2023-03-30T01:56:10.683Z,2.05
2023-03-30T01:58:40.616Z,2.55
2023-03-30T02:01:08.699Z,1.60
2023-03-30T02:03:38.717Z,2.08
2023-03-30T02:06:09.648Z,2.67
2023-03-30T02:08:37.919Z,2.20
2023-03-30T02:11:05.556Z,2.10
2023-03-30T02:13:33.753Z,2.42
2023-03-30T02:16:04.360Z,2.60
2023-03-30T02:18:32.022Z,2.92
2023-03-30T02:20:59.615Z,2.30
2023-03-30T02:23:29.510Z,2.13
2023-03-30T02:25:57.570Z,1.95
2023-03-30T02:28:24.875Z,2.17
2023-03-30T02:30:52.305Z,2.22
2023-03-30T02:33:25.320Z,2.08
2023-03-30T02:36:05.105Z,2.70
2023-03-30T02:38:40.688Z,2.13
2023-03-30T02:41:17.284Z,1.70
2023-03-30T02:43:52.593Z,2.30
2023-03-30T02:46:26.366Z,1.60
2023-03-30T02:49:01.778Z,2.38
2023-03-30T02:51:34.652Z,2.45
2023-03-30T02:54:07.004Z,2.13
2023-03-30T02:56:37.723Z,1.85
2023-03-30T02:59:06.785Z,2.90
2023-03-30T03:01:36.721Z,2.47
2023-03-30T03:04:06.245Z,2.38
2023-03-30T03:06:33.676Z,1.98
2023-03-30T03:09:01.589Z,2.25
2023-03-30T03:11:28.926Z,2.92
2023-03-30T03:13:56.542Z,2.47
2023-03-30T03:16:23.931Z,2.25
2023-03-30T03:18:51.250Z,2.53
2023-03-30T03:21:19.907Z,2.28
2023-03-30T03:23:48.344Z,2.33
2023-03-30T03:26:15.682Z,2.25
2023-03-30T03:28:43.008Z,3.25
2023-03-30T03:31:10.372Z,2.25
2023-03-30T03:33:37.725Z,2.35
2023-03-30T03:36:05.648Z,2.00
2023-03-30T03:38:34.356Z,2.30
2023-03-30T03:41:01.884Z,2.90
2023-03-30T03:43:29.423Z,2.13
2023-03-30T03:45:56.799Z,2.58
2023-03-30T03:48:24.910Z,2.08
2023-03-30T03:50:52.892Z,2.20
2023-03-30T03:53:20.662Z,2.85
2023-03-30T03:55:49.310Z,2.50
2023-03-30T03:58:17.250Z,2.05
2023-03-30T04:00:44.613Z,2.63
2023-03-30T04:03:12.357Z,2.30
2023-03-30T04:05:39.879Z,2.63
2023-03-30T04:08:10.452Z,3.00
2023-03-30T04:10:38.418Z,2.85
2023-03-30T04:13:07.091Z,3.10
2023-03-30T04:15:34.379Z,2.63
2023-03-30T04:18:01.849Z,2.40
2023-03-30T04:20:29.804Z,2.58
2023-03-30T04:22:57.499Z,2.42
2023-03-30T04:25:26.534Z,2.63
2023-03-30T04:27:54.246Z,3.10
2023-03-30T04:30:23.348Z,2.90
2023-03-30T04:33:02.356Z,2.70
2023-03-30T04:35:30.865Z,2.58
2023-03-30T04:37:58.370Z,3.15
2023-03-30T04:40:26.137Z,2.95
2023-03-30T04:42:53.473Z,3.15
2023-03-30T04:45:21.015Z,3.03
2023-03-30T04:47:49.721Z,2.75
2023-03-30T04:50:17.157Z,3.15
2023-03-30T04:52:44.576Z,3.10
2023-03-30T04:55:12.122Z,3.17
2023-03-30T04:57:39.456Z,3.30
2023-03-30T05:00:09.074Z,3.13
2023-03-30T05:02:36.625Z,2.85
2023-03-30T05:05:05.660Z,3.10
2023-03-30T05:07:33.003Z,3.03
2023-03-30T05:10:00.463Z,3.45
2023-03-30T05:12:27.801Z,2.67
2023-03-30T05:14:55.173Z,4.07
2023-03-30T05:17:22.435Z,3.00
2023-03-30T05:19:49.741Z,3.33
2023-03-30T05:22:18.378Z,3.05
2023-03-30T05:24:45.888Z,3.40
2023-03-30T05:27:13.847Z,2.90
2023-03-30T05:29:41.132Z,3.10
2023-03-30T05:32:09.068Z,3.08
2023-03-30T05:34:36.391Z,3.10
2023-03-30T05:37:03.748Z,3.22
2023-03-30T05:39:32.560Z,3.05
2023-03-30T05:42:01.447Z,3.38
2023-03-30T05:44:28.785Z,2.78
2023-03-30T05:46:56.160Z,2.83
2023-03-30T05:49:23.470Z,2.42
2023-03-30T05:51:50.866Z,2.97
2023-03-30T05:54:18.158Z,3.35
2023-03-30T05:56:46.909Z,3.25
2023-03-30T05:59:14.402Z,3.22
2023-03-30T06:01:41.672Z,3.20
2023-03-30T06:04:09.039Z,3.00
2023-03-30T06:06:36.392Z,2.80
2023-03-30T06:09:04.209Z,2.70
2023-03-30T06:11:31.899Z,2.33
2023-03-30T06:14:00.887Z,2.47
2023-03-30T06:16:29.009Z,2.97
2023-03-30T06:18:56.401Z,2.63
2023-03-30T06:21:23.924Z,2.28
2023-03-30T06:23:51.212Z,2.13
2023-03-30T06:26:18.819Z,2.33
2023-03-30T06:28:46.117Z,2.30
2023-03-30T06:31:15.239Z,2.35
2023-03-30T06:33:43.368Z,2.13
2023-03-30T06:36:11.742Z,2.22
2023-03-30T06:38:39.447Z,2.25
2023-03-30T06:41:09.821Z,2.33
2023-03-30T06:43:37.338Z,2.40
2023-03-30T06:46:05.124Z,2.20
2023-03-30T06:48:33.895Z,1.90
2023-03-30T06:51:02.444Z,2.30
2023-03-30T06:53:30.143Z,1.98
2023-03-30T06:55:58.638Z,2.25
2023-03-30T06:58:27.145Z,2.20
2023-03-30T07:00:54.804Z,2.40
2023-03-30T07:03:22.115Z,2.40
2023-03-30T07:05:51.134Z,2.10
2023-03-30T07:08:19.407Z,2.10
2023-03-30T07:10:47.179Z,2.28
2023-03-30T07:13:16.332Z,2.47
2023-03-30T07:15:43.711Z,1.88
2023-03-30T07:18:11.056Z,1.80
2023-03-30T07:20:38.535Z,1.77
2023-03-30T07:23:07.700Z,1.85
2023-03-30T07:25:35.036Z,1.98
2023-03-30T07:28:03.364Z,1.70
2023-03-30T07:30:30.674Z,1.73
2023-03-30T07:32:58.798Z,1.90
2023-03-30T07:35:26.943Z,2.00
2023-03-30T07:38:02.898Z,1.75
2023-03-30T07:40:32.236Z,2.00
2023-03-30T07:42:59.884Z,1.60
2023-03-30T07:45:27.195Z,1.85
2023-03-30T07:47:54.520Z,1.50
2023-03-30T07:50:22.646Z,1.77
2023-03-30T07:52:51.417Z,1.75
2023-03-30T07:55:18.879Z,1.70
2023-03-30T07:57:47.552Z,2.17
2023-03-30T08:00:15.850Z,1.70
2023-03-30T08:02:44.648Z,2.35
2023-03-30T08:05:12.161Z,1.88
2023-03-30T08:07:39.523Z,1.75
2023-03-30T08:10:07.979Z,2.15
2023-03-30T08:12:35.335Z,2.15
2023-03-30T08:15:04.111Z,2.33
2023-03-30T08:17:31.424Z,1.95
2023-03-30T08:19:58.809Z,1.90
2023-03-30T08:22:26.105Z,2.35
2023-03-30T08:24:53.383Z,2.60
2023-03-30T08:27:20.811Z,1.63
2023-03-30T08:29:48.764Z,2.00
2023-03-30T08:32:17.485Z,1.98
2023-03-30T08:34:44.866Z,2.60
2023-03-30T08:37:12.407Z,1.73
2023-03-30T08:39:39.787Z,2.20
2023-03-30T08:42:13.507Z,1.83
2023-03-30T08:44:41.488Z,1.80
2023-03-30T08:47:12.679Z,2.35
2023-03-30T08:49:43.124Z,2.30
2023-03-30T08:52:14.323Z,1.65
2023-03-30T08:54:41.598Z,1.88
2023-03-30T08:57:11.472Z,1.92
2023-03-30T08:59:43.890Z,1.77
2023-03-30T09:02:19.248Z,2.17
2023-03-30T09:04:56.915Z,1.75
2023-03-30T09:07:25.471Z,1.73
2023-03-30T09:09:53.421Z,1.90
2023-03-30T09:12:23.292Z,1.80
2023-03-30T09:14:52.056Z,1.10
2023-03-30T09:17:21.964Z,2.67
2023-03-30T09:19:52.911Z,2.08
2023-03-30T09:22:20.940Z,2.08
2023-03-30T09:24:48.336Z,2.03
2023-03-30T09:27:18.751Z,1.80
2023-03-30T09:29:48.036Z,1.20
2023-03-30T09:32:21.868Z,1.85
2023-03-30T09:34:54.177Z,2.40
2023-03-30T09:37:22.335Z,1.70
2023-03-30T09:39:50.413Z,1.35
2023-03-30T09:42:22.646Z,1.92
2023-03-30T09:44:52.313Z,1.50
2023-03-30T09:47:27.066Z,1.33
2023-03-30T09:52:24.656Z,2.25
2023-03-30T09:54:51.976Z,2.75
2023-03-30T09:57:27.643Z,2.35
2023-03-30T09:59:56.446Z,1.60
2023-03-30T10:02:25.150Z,2.00
2023-03-30T10:05:02.061Z,1.98
2023-03-30T10:07:32.010Z,1.77
2023-03-30T10:10:00.781Z,1.60
2023-03-30T10:12:29.134Z,1.50
2023-03-30T10:14:56.911Z,1.50
2023-03-30T10:17:25.670Z,1.27
2023-03-30T10:20:03.518Z,1.73
2023-03-30T10:22:49.722Z,2.00
2023-03-30T10:25:21.098Z,1.20
2023-03-30T10:27:50.501Z,1.20
2023-03-30T10:30:21.048Z,1.85
2023-03-30T10:41:02.681Z,1.27
2023-03-30T10:43:31.435Z,1.10
2023-03-30T10:46:06.318Z,1.55
2023-03-30T10:51:14.708Z,0.77
2023-03-30T10:53:46.829Z,1.20
2023-03-30T10:56:21.232Z,1.10
2023-03-30T10:58:55.864Z,1.20
2023-03-30T11:01:27.302Z,1.20
2023-03-30T11:03:57.924Z,1.17
2023-03-30T11:06:27.826Z,1.27
2023-03-30T11:08:57.665Z,1.48
2023-03-30T11:11:31.008Z,1.48
2023-03-30T11:14:01.756Z,1.52
2023-03-30T11:16:34.470Z,1.60
2023-03-30T11:19:04.473Z,1.48
2023-03-30T11:21:34.304Z,1.67
2023-03-30T11:24:04.878Z,1.73
2023-03-30T11:26:36.640Z,2.15
2023-03-30T11:29:09.796Z,2.17
2023-03-30T11:31:43.566Z,1.92
2023-03-30T11:34:17.425Z,2.08
2023-03-30T11:36:49.586Z,2.00
2023-03-30T11:39:31.541Z,2.00
2023-03-30T11:42:04.694Z,1.88
2023-03-30T11:44:32.137Z,1.65
2023-03-30T11:47:03.658Z,1.98
2023-03-30T11:49:39.236Z,1.77
2023-03-30T11:52:18.880Z,1.75
2023-03-30T11:55:04.990Z,1.50
2023-03-30T11:57:36.896Z,1.80
2023-03-30T12:00:10.758Z,1.70
2023-03-30T12:02:43.244Z,1.10
2023-03-30T12:05:12.422Z,1.02
2023-03-30T12:07:46.684Z,0.90
2023-03-30T12:10:18.190Z,0.80
2023-03-30T12:12:49.255Z,0.68
2023-03-30T12:15:26.307Z,0.90
2023-03-30T12:17:54.839Z,0.88
2023-03-30T12:20:28.666Z,1.30
2023-03-30T12:22:57.011Z,1.30
2023-03-30T12:25:29.193Z,1.90
2023-03-30T12:28:04.240Z,1.55
2023-03-30T12:30:32.804Z,1.80
2023-03-30T12:33:02.167Z,1.95
2023-03-30T12:35:48.295Z,2.00
2023-03-30T12:38:19.838Z,2.00
2023-03-30T12:40:54.001Z,1.63
2023-03-30T12:43:25.378Z,1.80
2023-03-30T12:46:01.989Z,1.83
2023-03-30T12:48:33.482Z,1.80
2023-03-30T12:51:08.455Z,1.63
2023-03-30T12:53:47.160Z,2.38
2023-03-30T12:56:17.666Z,2.10
2023-03-30T12:58:52.731Z,1.95
2023-03-30T13:01:28.643Z,2.35
2023-03-30T13:03:59.354Z,2.03
2023-03-30T13:06:29.650Z,2.28
2023-03-30T13:08:57.842Z,2.53
2023-03-30T13:11:25.226Z,1.20
2023-03-30T13:13:55.235Z,1.10
2023-03-30T13:16:41.248Z,1.60
2023-03-30T13:19:14.608Z,1.63
2023-03-30T13:21:48.918Z,1.52
2023-03-30T13:24:24.845Z,1.60
2023-03-30T13:26:53.882Z,2.10
2023-03-30T13:34:58.511Z,2.05
2023-03-30T13:37:40.115Z,1.63
2023-03-30T13:40:27.371Z,1.95
2023-03-30T13:43:05.288Z,2.65
2023-03-30T13:45:35.420Z,1.75
2023-03-30T13:48:11.575Z,1.88
2023-03-30T13:50:40.775Z,1.60
2023-03-30T13:53:10.153Z,2.05
2023-03-30T13:55:39.023Z,1.30
2023-03-30T13:58:10.074Z,1.65
2023-03-30T14:00:44.746Z,1.95
2023-03-30T14:03:33.890Z,1.50
2023-03-30T14:06:05.362Z,1.42
2023-03-30T14:08:35.569Z,2.00
2023-03-30T14:11:04.906Z,2.15
2023-03-30T14:13:32.395Z,2.10
2023-03-30T14:15:59.810Z,1.63
2023-03-30T14:18:27.678Z,1.95
2023-03-30T14:20:57.283Z,1.52
2023-03-30T14:23:30.063Z,2.83
2023-03-30T14:25:59.353Z,1.80
2023-03-30T14:28:27.954Z,2.08
2023-03-30T14:30:56.142Z,1.75
2023-03-30T14:33:23.912Z,2.05
2023-03-30T14:35:52.089Z,2.13
2023-03-30T14:38:22.383Z,2.10
2023-03-30T14:40:51.724Z,2.70
2023-03-30T14:43:21.959Z,2.20
2023-03-30T14:45:50.059Z,2.15
2023-03-30T14:48:23.805Z,2.55
2023-03-30T14:50:51.367Z,2.30
2023-03-30T14:53:21.724Z,2.10
2023-03-30T14:55:49.209Z,1.60
2023-03-30T14:58:18.345Z,2.15
2023-03-30T15:00:45.851Z,2.25
2023-03-30T15:03:26.504Z,3.05
2023-03-30T15:06:00.446Z,2.47
2023-03-30T15:08:28.435Z,2.20
2023-03-30T15:10:56.479Z,2.15
2023-03-30T15:13:28.472Z,2.15
2023-03-30T15:15:56.961Z,2.35
2023-03-30T15:18:26.080Z,1.92
2023-03-30T15:20:53.815Z,2.30
2023-03-30T15:23:21.286Z,2.20
2023-03-30T15:25:48.989Z,2.15
2023-03-30T15:28:18.985Z,1.95
2023-03-30T15:30:49.702Z,1.85
2023-03-30T15:33:36.216Z,1.38
2023-03-30T15:36:07.851Z,1.08
2023-03-30T15:38:36.504Z,1.48
2023-03-30T15:41:04.368Z,1.35
2023-03-30T15:43:33.297Z,1.48
2023-03-30T15:46:03.303Z,1.42
2023-03-30T15:48:32.080Z,1.30
2023-03-30T15:51:03.601Z,1.17
2023-03-30T15:53:36.341Z,1.63
2023-03-30T15:56:04.332Z,1.33
2023-03-30T15:58:33.724Z,2.15
2023-03-30T16:01:03.579Z,1.50
2023-03-30T16:03:35.678Z,1.52
2023-03-30T16:06:03.068Z,1.30
2023-03-30T16:08:30.543Z,1.50
2023-03-30T16:10:58.546Z,1.60
2023-03-30T16:13:25.955Z,1.63
2023-03-30T16:15:53.632Z,1.73
2023-03-30T16:18:22.283Z,2.10
2023-03-30T16:20:49.883Z,1.83
2023-03-30T16:23:17.183Z,1.45
2023-03-30T16:25:45.453Z,1.70
2023-03-30T16:28:16.099Z,1.80
2023-03-30T16:30:44.206Z,1.63
2023-03-30T16:33:11.664Z,1.92
2023-03-30T16:35:40.500Z,1.73
2023-03-30T16:38:07.874Z,1.10
2023-03-30T16:40:36.897Z,1.10
2023-03-30T16:43:04.406Z,1.40
2023-03-30T16:45:32.096Z,1.00
2023-03-30T16:47:59.609Z,0.70
2023-03-30T16:50:32.530Z,0.95
2023-03-30T16:53:01.371Z,1.00
2023-03-30T16:55:28.746Z,1.00
2023-03-30T16:57:56.097Z,0.90
2023-03-30T17:00:25.325Z,1.23
2023-03-30T17:02:52.870Z,0.88
2023-03-30T17:05:20.649Z,0.95
2023-03-30T17:07:48.134Z,1.00
2023-03-30T17:10:19.216Z,1.25
2023-03-30T17:12:46.544Z,0.77
2023-03-30T17:15:13.828Z,1.02
2023-03-30T17:17:41.424Z,0.80
2023-03-30T17:20:23.240Z,1.50
2023-03-30T17:22:51.126Z,1.30
2023-03-30T17:25:23.294Z,1.42
2023-03-30T17:27:51.345Z,1.30
2023-03-30T17:30:20.627Z,1.80
2023-03-30T17:32:48.150Z,1.50
2023-03-30T17:35:15.930Z,1.42
2023-03-30T17:37:43.268Z,3.50
2023-03-30T17:40:15.343Z,2.42
2023-03-30T17:42:44.320Z,1.60
2023-03-30T17:45:12.499Z,1.77
2023-03-30T17:47:39.927Z,2.05
2023-03-30T17:50:21.220Z,1.83
2023-03-30T17:52:48.650Z,1.95
2023-03-30T17:55:16.323Z,2.10
2023-03-30T17:57:45.081Z,1.55
2023-03-30T18:00:30.398Z,1.92
2023-03-30T18:02:57.835Z,1.90
2023-03-30T18:05:26.305Z,1.85
2023-03-30T18:07:53.749Z,2.60
2023-03-30T18:10:22.606Z,1.95
2023-03-30T18:12:52.067Z,1.88
2023-03-30T18:15:20.040Z,1.73
2023-03-30T18:17:47.619Z,1.90
2023-03-30T18:20:19.142Z,1.80
2023-03-30T18:22:46.473Z,1.77
2023-03-30T18:25:22.038Z,2.45
2023-03-30T18:27:55.711Z,2.42
2023-03-30T18:30:24.853Z,1.80
2023-03-30T18:32:52.457Z,1.40
2023-03-30T18:35:20.211Z,1.13
2023-03-30T18:37:47.973Z,1.52
2023-03-30T18:40:17.459Z,1.55
2023-03-30T18:42:46.297Z,1.55
2023-03-30T18:45:16.349Z,1.73
2023-03-30T18:47:43.870Z,1.73
2023-03-30T18:50:17.248Z,1.52
2023-03-30T18:52:44.907Z,1.90
2023-03-30T18:55:12.660Z,2.03
2023-03-30T18:57:40.120Z,1.60
2023-03-30T19:00:21.287Z,1.50
2023-03-30T19:02:48.916Z,1.50
2023-03-30T19:05:17.590Z,1.45
2023-03-30T19:07:45.671Z,1.58
2023-03-30T19:10:13.855Z,1.75
2023-03-30T19:12:41.387Z,1.58
2023-03-30T19:15:11.580Z,1.40
2023-03-30T19:17:40.452Z,1.60
2023-03-30T19:20:08.458Z,1.60
2023-03-30T19:22:35.775Z,1.80
2023-03-30T19:25:04.684Z,1.70
2023-03-30T19:27:32.096Z,2.28
2023-03-30T19:29:59.453Z,1.30
2023-03-30T19:32:26.795Z,1.27
2023-03-30T19:34:55.879Z,2.00
2023-03-30T19:37:23.258Z,1.75
2023-03-30T19:39:50.680Z,1.80
2023-03-30T19:42:17.995Z,1.48
2023-03-30T19:44:45.359Z,1.20
2023-03-30T19:47:12.750Z,1.17
2023-03-30T19:49:40.092Z,1.30
2023-03-30T19:52:08.723Z,1.80
2023-03-30T19:54:36.037Z,1.10
2023-03-30T19:57:03.539Z,1.40
2023-03-30T19:59:30.971Z,1.42
2023-03-30T20:01:58.313Z,1.33
2023-03-30T20:04:25.671Z,1.05
2023-03-30T20:06:53.732Z,1.38
2023-03-30T20:09:22.467Z,1.75
2023-03-30T20:11:49.744Z,2.50
2023-03-30T20:14:17.037Z,2.22
2023-03-30T20:16:44.426Z,2.03
2023-03-30T20:19:28.562Z,1.90
2023-03-30T20:24:25.864Z,1.50
2023-03-30T20:26:53.370Z,1.67
2023-03-30T20:29:20.680Z,2.25
2023-03-30T20:31:48.037Z,1.73
2023-03-30T20:34:16.364Z,2.10
2023-03-30T20:36:44.725Z,1.95
2023-03-30T20:39:13.874Z,2.17
2023-03-30T20:41:42.585Z,1.85
2023-03-30T20:44:12.011Z,1.75
2023-03-30T20:46:39.506Z,1.80
2023-03-30T20:49:07.896Z,1.67
2023-03-30T20:51:35.997Z,2.67
2023-03-30T20:54:04.548Z,2.28
2023-03-30T20:56:31.910Z,1.88
2023-03-30T20:59:00.529Z,2.00
2023-03-30T21:01:29.284Z,2.15
2023-03-30T21:03:57.549Z,2.25
2023-03-30T21:06:25.943Z,1.95
2023-03-30T21:08:54.255Z,1.75
2023-03-30T21:11:22.493Z,2.20
2023-03-30T21:13:50.456Z,1.95
2023-03-30T21:16:19.148Z,2.40
2023-03-30T21:18:46.517Z,2.50
2023-03-30T21:21:13.931Z,1.65
2023-03-30T21:23:41.934Z,2.10
2023-03-30T21:26:09.447Z,2.92
2023-03-30T21:28:37.377Z,1.92
2023-03-30T21:31:07.379Z,1.95
2023-03-30T21:33:36.387Z,1.80
2023-03-30T21:36:04.658Z,1.92
2023-03-30T21:38:32.673Z,1.60
2023-03-30T21:41:01.016Z,1.50
2023-03-30T21:43:28.859Z,1.70
2023-03-30T21:45:56.841Z,2.38
2023-03-30T21:48:24.232Z,2.63
2023-03-30T21:50:58.220Z,1.98
2023-03-30T21:53:25.805Z,2.10
2023-03-30T21:55:53.106Z,1.58
2023-03-30T21:58:20.454Z,1.80
2023-03-30T22:00:53.452Z,1.95
2023-03-30T22:03:29.003Z,1.83
2023-03-30T22:05:59.580Z,2.25
2023-03-30T22:08:27.075Z,2.20
2023-03-30T22:10:56.648Z,1.77
2023-03-30T22:13:24.079Z,1.15
2023-03-30T22:15:56.182Z,1.33
2023-03-30T22:18:23.565Z,1.60
2023-03-30T22:20:50.936Z,1.70
2023-03-30T22:23:19.921Z,1.23
2023-03-30T22:25:47.479Z,1.77
2023-03-30T22:28:14.738Z,1.80
2023-03-30T22:30:42.781Z,1.40
2023-03-30T22:33:10.415Z,1.92
2023-03-30T22:35:38.425Z,1.67
2023-03-30T22:38:06.243Z,1.98
2023-03-30T22:40:35.921Z,1.92
2023-03-30T22:43:03.359Z,1.40
2023-03-30T22:45:31.155Z,2.28
2023-03-30T22:47:59.387Z,1.13
2023-03-30T22:50:27.421Z,1.50
2023-03-30T22:52:55.002Z,1.45
2023-03-30T22:55:22.519Z,1.70
2023-03-30T22:57:52.460Z,1.83
2023-03-30T23:00:20.925Z,1.33
2023-03-30T23:02:49.215Z,2.17
2023-03-30T23:05:16.972Z,1.70
2023-03-30T23:07:45.895Z,1.63
2023-03-30T23:10:15.433Z,2.00
2023-03-30T23:12:42.971Z,1.80
2023-03-30T23:15:11.810Z,1.50
2023-03-30T23:17:39.527Z,1.67
2023-03-30T23:20:10.065Z,1.80
2023-03-30T23:22:37.464Z,2.53
2023-03-30T23:25:05.166Z,1.55
2023-03-30T23:27:32.517Z,1.58
2023-03-30T23:29:59.847Z,1.55
2023-03-30T23:32:28.521Z,1.83
2023-03-30T23:34:55.922Z,1.50
2023-03-30T23:37:23.244Z,2.60
2023-03-30T23:39:50.684Z,1.70
2023-03-30T23:42:18.063Z,1.58
2023-03-30T23:44:45.540Z,1.80
2023-03-30T23:47:12.825Z,2.17
2023-03-30T23:49:41.541Z,1.48
2023-03-30T23:52:08.869Z,1.90
2023-03-30T23:54:37.257Z,1.58
2023-03-30T23:57:07.166Z,1.67
2023-03-30T23:59:35.206Z,1.55
